Cedar Vale, Kansas
Current Conditions -  °F | °C
As of 1:54 AM on Sunday 26 Oct 2014 (Local Time) from KWLD Reporting Station
Clear Clear  
Wind Chill: 66°   Ceiling: Unl
Heat Index: 66°   Visibility: 10mi
Dew Point: 57°   Wind: 6mph
Humidity: 73%   Direction: 190°S
Pressure: 29.96"   Gusts: NA
Location:  37.1°N, 96.5°W
Report Text: KWLD 260654Z AUTO 19005KT 10SM CLR 19/14 A2996 RMK AO2 SLP132 T01890139
Loading
Personal Weather Stations






























Interactive Weather Map
Tropical Storm Tracking
New forecast layout! Learn more

10-Day Weather Forecast

Advertisements
Track Severe Weather on mobile